Time;durP1;ratioP1;P1;durP2;ratioP2;P2;SDS_P1;SDS_P2;PMS_P1;PMS_P2;Temp;Humidity;BMP_temperature;BMP_pressure;BME280_temperature;BME280_humidity;BME280_pressure;Samples;Min_cycle;Max_cycle;Signal;HPM_P1;HPM_P2
2022/10/14 00:01:16;;;;;;;74.22;47.50;;;;;;;;;;5078956;28;20451;-81
2022/10/14 00:03:43;;;;;;;76.15;48.28;;;;;;;;;;5082959;28;20430;-81
2022/10/14 00:06:11;;;;;;;71.60;46.15;;;;;;;;;;5081194;28;20429;-81
2022/10/14 00:08:37;;;;;;;79.47;50.60;;;;;;;;;;5080241;28;20425;-81
2022/10/14 00:11:05;;;;;;;75.70;47.80;;;;;;;;;;5080848;28;20452;-82
2022/10/14 00:13:32;;;;;;;79.78;49.45;;;;;;;;;;5076839;28;20427;-81
2022/10/14 00:15:58;;;;;;;83.05;50.97;;;;;;;;;;5096255;28;20473;-81
2022/10/14 00:18:26;;;;;;;84.70;52.40;;;;;;;;;;5082701;28;20811;-81
2022/10/14 00:20:56;;;;;;;86.50;52.17;;;;;;;;;;5079889;28;20508;-82
2022/10/14 00:23:23;;;;;;;85.28;53.13;;;;;;;;;;5063050;28;20805;-82
2022/10/14 00:25:49;;;;;;;89.38;54.50;;;;;;;;;;5080417;28;20426;-84
2022/10/14 00:28:16;;;;;;;97.65;56.55;;;;;;;;;;5083092;28;20421;-80
2022/10/14 00:30:52;;;;;;;89.35;54.70;;;;;;;;;;5082099;28;20430;-81
2022/10/14 00:33:18;;;;;;;90.40;54.67;;;;;;;;;;5079987;28;20431;-81
2022/10/14 00:35:52;;;;;;;90.63;54.55;;;;;;;;;;5081718;28;20417;-83
2022/10/14 00:38:19;;;;;;;89.87;55.50;;;;;;;;;;5080373;28;20418;-82
2022/10/14 00:40:45;;;;;;;82.20;52.58;;;;;;;;;;5046553;28;20414;-82
2022/10/14 00:43:13;;;;;;;81.63;52.10;;;;;;;;;;5081276;28;20419;-80
2022/10/14 00:45:40;;;;;;;87.93;52.03;;;;;;;;;;5065490;28;20418;-81
2022/10/14 00:48:07;;;;;;;90.80;54.83;;;;;;;;;;5062769;28;20907;-82
2022/10/14 00:50:34;;;;;;;96.78;56.97;;;;;;;;;;5080610;28;20421;-81
2022/10/14 00:53:02;;;;;;;96.68;58.58;;;;;;;;;;5081318;28;21024;-81
2022/10/14 00:55:29;;;;;;;97.47;58.00;;;;;;;;;;5083023;28;20963;-83
2022/10/14 00:57:56;;;;;;;89.97;55.35;;;;;;;;;;5081436;28;20924;-82
2022/10/14 01:00:23;;;;;;;89.95;55.78;;;;;;;;;;5080983;28;20441;-82
2022/10/14 01:02:49;;;;;;;88.50;54.03;;;;;;;;;;5081043;28;20410;-82
2022/10/14 01:05:17;;;;;;;92.20;55.03;;;;;;;;;;5080256;28;20431;-81
2022/10/14 01:07:49;;;;;;;83.53;52.88;;;;;;;;;;5081021;28;20425;-81
2022/10/14 01:10:22;;;;;;;91.20;57.28;;;;;;;;;;5079985;28;20434;-81
2022/10/14 01:12:54;;;;;;;87.90;58.00;;;;;;;;;;5078828;28;20435;-81
2022/10/14 01:15:25;;;;;;;87.80;51.80;;;;;;;;;;5081762;28;20466;-82
2022/10/14 01:17:56;;;;;;;90.78;56.10;;;;;;;;;;5082843;28;20426;-82
2022/10/14 01:20:31;;;;;;;88.63;56.45;;;;;;;;;;5079108;28;20796;-81
2022/10/14 01:23:06;;;;;;;90.30;57.70;;;;;;;;;;5080782;28;20470;-81
2022/10/14 01:25:35;;;;;;;88.65;57.10;;;;;;;;;;5079637;28;20452;-81
2022/10/14 01:28:09;;;;;;;86.82;57.15;;;;;;;;;;5081068;28;20431;-82
2022/10/14 01:30:40;;;;;;;93.25;57.80;;;;;;;;;;5081566;28;20412;-81
2022/10/14 01:33:08;;;;;;;89.65;56.22;;;;;;;;;;5084692;28;20442;-81
2022/10/14 01:35:42;;;;;;;100.15;60.10;;;;;;;;;;5085826;28;20439;-84
2022/10/14 01:38:10;;;;;;;92.20;58.13;;;;;;;;;;5087492;28;20835;-84
2022/10/14 01:40:39;;;;;;;98.10;60.72;;;;;;;;;;5081433;28;20441;-83
2022/10/14 01:43:06;;;;;;;93.25;58.00;;;;;;;;;;5084959;28;20417;-83
2022/10/14 01:45:35;;;;;;;96.80;59.60;;;;;;;;;;5083839;28;20427;-83
2022/10/14 01:48:03;;;;;;;96.78;58.58;;;;;;;;;;5082188;28;20429;-82
2022/10/14 01:50:31;;;;;;;93.15;59.28;;;;;;;;;;5095538;28;20436;-81
2022/10/14 01:53:02;;;;;;;97.15;58.85;;;;;;;;;;5082599;28;20424;-84
2022/10/14 01:55:32;;;;;;;97.75;59.55;;;;;;;;;;5086433;28;20420;-81
2022/10/14 01:57:59;;;;;;;99.00;58.90;;;;;;;;;;5066615;28;20492;-84
2022/10/14 02:00:26;;;;;;;97.40;57.28;;;;;;;;;;5065504;28;20425;-83
2022/10/14 02:02:54;;;;;;;104.72;59.83;;;;;;;;;;5080473;28;20414;-82
2022/10/14 02:05:29;;;;;;;107.90;59.33;;;;;;;;;;5082495;28;20430;-82
2022/10/14 02:07:58;;;;;;;104.65;62.22;;;;;;;;;;5081466;28;20426;-82
2022/10/14 02:10:30;;;;;;;101.50;60.15;;;;;;;;;;5083652;28;20432;-82
2022/10/14 02:13:04;;;;;;;105.38;59.28;;;;;;;;;;5079423;28;20928;-83
2022/10/14 02:15:32;;;;;;;110.97;62.20;;;;;;;;;;5083001;28;20434;-82
2022/10/14 02:18:04;;;;;;;108.78;63.10;;;;;;;;;;5081578;28;20431;-83
2022/10/14 02:20:33;;;;;;;105.15;61.70;;;;;;;;;;5078784;28;20419;-82
2022/10/14 02:23:01;;;;;;;104.80;60.25;;;;;;;;;;5062580;28;20855;-83
2022/10/14 02:25:30;;;;;;;105.00;62.25;;;;;;;;;;5080240;28;20430;-82
2022/10/14 02:27:58;;;;;;;104.18;61.97;;;;;;;;;;5082678;28;20883;-82
2022/10/14 02:30:26;;;;;;;110.80;63.67;;;;;;;;;;5097655;28;20447;-82
2022/10/14 02:32:52;;;;;;;107.63;65.00;;;;;;;;;;5060756;28;20441;-82
2022/10/14 02:35:20;;;;;;;113.05;66.57;;;;;;;;;;5065309;28;20495;-82
2022/10/14 02:37:48;;;;;;;111.60;65.88;;;;;;;;;;5081553;28;20510;-83
2022/10/14 02:40:16;;;;;;;109.05;63.90;;;;;;;;;;5078433;28;20431;-81
2022/10/14 02:42:44;;;;;;;109.50;63.90;;;;;;;;;;5080048;28;20926;-83
2022/10/14 02:45:10;;;;;;;113.68;63.00;;;;;;;;;;5083602;28;20797;-82
2022/10/14 02:47:37;;;;;;;112.90;62.33;;;;;;;;;;5078227;28;20454;-83
2022/10/14 02:50:04;;;;;;;108.93;64.15;;;;;;;;;;5079147;28;20435;-82
2022/10/14 02:52:31;;;;;;;111.93;65.68;;;;;;;;;;5078253;28;21344;-83
2022/10/14 02:54:59;;;;;;;113.53;64.53;;;;;;;;;;5079246;28;20427;-83
2022/10/14 02:57:26;;;;;;;111.32;63.67;;;;;;;;;;5083462;28;20422;-82
2022/10/14 02:59:52;;;;;;;117.38;65.45;;;;;;;;;;5065984;28;20450;-83
2022/10/14 03:02:18;;;;;;;119.77;67.27;;;;;;;;;;5065409;28;20466;-84
2022/10/14 03:04:45;;;;;;;115.15;66.95;;;;;;;;;;5095951;28;20805;-83
2022/10/14 03:07:11;;;;;;;119.63;66.23;;;;;;;;;;5083925;28;20433;-83
2022/10/14 03:09:38;;;;;;;118.53;68.97;;;;;;;;;;5082028;28;20431;-82
2022/10/14 03:12:06;;;;;;;115.57;66.03;;;;;;;;;;5077519;28;20438;-83
2022/10/14 03:14:32;;;;;;;115.28;67.35;;;;;;;;;;5062011;28;20427;-82
2022/10/14 03:16:59;;;;;;;125.07;68.40;;;;;;;;;;5060988;28;20414;-83
2022/10/14 03:19:27;;;;;;;118.70;68.05;;;;;;;;;;5084496;28;20429;-82
2022/10/14 03:21:53;;;;;;;121.20;66.78;;;;;;;;;;5079531;28;20801;-83
2022/10/14 03:24:20;;;;;;;124.70;69.13;;;;;;;;;;5080649;28;20905;-82
2022/10/14 03:26:46;;;;;;;121.50;66.50;;;;;;;;;;5079953;28;20437;-82
2022/10/14 03:29:14;;;;;;;120.35;65.28;;;;;;;;;;5076871;28;21266;-82
2022/10/14 03:31:40;;;;;;;123.30;68.90;;;;;;;;;;5066157;28;20573;-82
2022/10/14 03:34:07;;;;;;;120.83;66.40;;;;;;;;;;5081296;28;20422;-83
2022/10/14 03:36:33;;;;;;;125.47;67.18;;;;;;;;;;5078940;28;20465;-83
2022/10/14 03:39:00;;;;;;;125.60;69.55;;;;;;;;;;5080107;28;20430;-83
2022/10/14 03:41:26;;;;;;;127.50;67.65;;;;;;;;;;5078391;28;20427;-83
2022/10/14 03:43:52;;;;;;;134.10;67.70;;;;;;;;;;5080611;28;20419;-83
2022/10/14 03:46:20;;;;;;;126.45;65.50;;;;;;;;;;5080089;28;20434;-82
2022/10/14 03:48:47;;;;;;;123.30;66.97;;;;;;;;;;5078457;28;20426;-83
2022/10/14 03:51:13;;;;;;;118.85;64.03;;;;;;;;;;5097316;28;20436;-83
2022/10/14 03:53:39;;;;;;;120.72;66.40;;;;;;;;;;5093683;28;20442;-82
2022/10/14 03:56:06;;;;;;;123.80;68.20;;;;;;;;;;5082408;28;20431;-83
2022/10/14 03:58:33;;;;;;;125.20;64.75;;;;;;;;;;5080423;28;20423;-82
2022/10/14 04:00:59;;;;;;;126.70;67.53;;;;;;;;;;5064286;28;20431;-83
2022/10/14 04:03:27;;;;;;;130.60;67.68;;;;;;;;;;5061331;28;20492;-83
2022/10/14 04:05:53;;;;;;;120.55;64.45;;;;;;;;;;5080087;28;20417;-83
2022/10/14 04:08:20;;;;;;;130.07;65.82;;;;;;;;;;5079369;28;20423;-82
2022/10/14 04:10:51;;;;;;;118.33;66.43;;;;;;;;;;5081911;28;20436;-84
2022/10/14 04:13:17;;;;;;;120.28;66.50;;;;;;;;;;5077978;28;20423;-83
2022/10/14 04:15:43;;;;;;;125.65;65.18;;;;;;;;;;5079151;28;22003;-83
2022/10/14 04:18:10;;;;;;;121.43;65.28;;;;;;;;;;5078766;28;20450;-83
2022/10/14 04:20:38;;;;;;;126.40;65.63;;;;;;;;;;5077416;28;20431;-82
2022/10/14 04:23:06;;;;;;;120.53;64.25;;;;;;;;;;5081394;28;20508;-82
2022/10/14 04:25:32;;;;;;;118.18;65.35;;;;;;;;;;5081265;28;20431;-83
2022/10/14 04:27:59;;;;;;;117.18;66.15;;;;;;;;;;5095506;28;20836;-83
2022/10/14 04:30:25;;;;;;;116.00;66.05;;;;;;;;;;5060917;28;20434;-83
2022/10/14 04:32:52;;;;;;;116.50;63.70;;;;;;;;;;5081608;28;20415;-83
2022/10/14 04:35:19;;;;;;;116.90;64.07;;;;;;;;;;5077034;28;20411;-83
2022/10/14 04:37:46;;;;;;;116.95;64.43;;;;;;;;;;5081418;28;20415;-83
2022/10/14 04:40:13;;;;;;;112.93;64.53;;;;;;;;;;5081738;28;20411;-83
2022/10/14 04:42:39;;;;;;;117.93;66.20;;;;;;;;;;5064771;28;20414;-82
2022/10/14 04:45:06;;;;;;;121.07;66.85;;;;;;;;;;5082784;28;20421;-83
2022/10/14 04:47:33;;;;;;;123.78;66.07;;;;;;;;;;5078541;28;20421;-83
2022/10/14 04:49:59;;;;;;;120.82;67.15;;;;;;;;;;5080551;28;20408;-83
2022/10/14 04:52:25;;;;;;;126.80;70.25;;;;;;;;;;5079123;28;20407;-83
2022/10/14 04:54:53;;;;;;;115.82;63.75;;;;;;;;;;5081643;28;20428;-83
2022/10/14 04:57:20;;;;;;;116.15;64.15;;;;;;;;;;5058817;28;20407;-83
2022/10/14 04:59:46;;;;;;;130.27;68.32;;;;;;;;;;5080694;28;20421;-82
2022/10/14 05:02:13;;;;;;;130.13;69.20;;;;;;;;;;5081749;28;20490;-82
2022/10/14 05:04:42;;;;;;;120.25;64.15;;;;;;;;;;5060240;28;20832;-83
2022/10/14 05:07:11;;;;;;;112.70;62.13;;;;;;;;;;5066297;28;20401;-82
2022/10/14 05:09:37;;;;;;;122.40;65.30;;;;;;;;;;5083055;28;20439;-82
2022/10/14 05:12:05;;;;;;;122.07;65.25;;;;;;;;;;5082085;28;20848;-83
2022/10/14 05:14:32;;;;;;;125.68;69.75;;;;;;;;;;5083169;28;20417;-82
2022/10/14 05:16:58;;;;;;;111.43;64.43;;;;;;;;;;5085087;28;20425;-83
2022/10/14 05:19:25;;;;;;;115.18;64.60;;;;;;;;;;5049237;28;20506;-82
2022/10/14 05:21:51;;;;;;;123.95;65.68;;;;;;;;;;5083499;28;20515;-83
2022/10/14 05:24:18;;;;;;;125.13;68.85;;;;;;;;;;5082737;28;20967;-82
2022/10/14 05:26:45;;;;;;;117.80;63.28;;;;;;;;;;5097033;28;20439;-84
2022/10/14 05:29:13;;;;;;;118.10;63.20;;;;;;;;;;5084630;28;20457;-83
2022/10/14 05:31:40;;;;;;;111.75;61.60;;;;;;;;;;5080097;28;20435;-82
2022/10/14 05:34:06;;;;;;;128.50;66.65;;;;;;;;;;5079905;28;20962;-82
2022/10/14 05:36:33;;;;;;;120.13;65.60;;;;;;;;;;5078966;28;20830;-82
2022/10/14 05:38:59;;;;;;;126.20;66.70;;;;;;;;;;5082314;28;20428;-83
2022/10/14 05:41:25;;;;;;;128.32;70.50;;;;;;;;;;5078411;28;20478;-82
2022/10/14 05:43:52;;;;;;;123.60;66.13;;;;;;;;;;5082003;28;20429;-82
2022/10/14 05:46:19;;;;;;;140.98;69.13;;;;;;;;;;5080280;28;20427;-83
2022/10/14 05:48:46;;;;;;;132.80;68.85;;;;;;;;;;5080489;28;20461;-83
2022/10/14 05:51:14;;;;;;;136.15;68.80;;;;;;;;;;5080268;28;20438;-82
2022/10/14 05:53:41;;;;;;;127.13;67.05;;;;;;;;;;5086102;28;20411;-83
2022/10/14 05:56:09;;;;;;;133.40;68.90;;;;;;;;;;5083672;28;20481;-83
2022/10/14 05:58:36;;;;;;;133.30;68.78;;;;;;;;;;5063968;28;20966;-82
2022/10/14 06:01:04;;;;;;;136.63;69.53;;;;;;;;;;5081515;28;20535;-81
2022/10/14 06:03:34;;;;;;;144.52;69.95;;;;;;;;;;5079635;28;20588;-83
2022/10/14 06:06:00;;;;;;;147.23;73.00;;;;;;;;;;5084876;28;20436;-83
2022/10/14 06:08:27;;;;;;;144.73;70.15;;;;;;;;;;5088105;28;20437;-82
2022/10/14 06:10:54;;;;;;;143.27;69.60;;;;;;;;;;5083446;28;20432;-82
2022/10/14 06:13:20;;;;;;;132.80;68.50;;;;;;;;;;5083012;28;20418;-81
2022/10/14 06:15:47;;;;;;;146.77;71.10;;;;;;;;;;5066884;28;20417;-81
2022/10/14 06:18:14;;;;;;;153.70;70.30;;;;;;;;;;5083325;28;20885;-82
2022/10/14 06:20:42;;;;;;;155.80;70.77;;;;;;;;;;5084964;28;20412;-81
2022/10/14 06:23:08;;;;;;;146.40;73.18;;;;;;;;;;5081298;28;20475;-81
2022/10/14 06:25:36;;;;;;;147.88;68.30;;;;;;;;;;5085087;28;20415;-81
2022/10/14 06:28:03;;;;;;;143.38;66.72;;;;;;;;;;5063308;28;20422;-81
2022/10/14 06:30:30;;;;;;;136.00;68.28;;;;;;;;;;5084634;28;20418;-82
2022/10/14 06:32:56;;;;;;;131.43;64.93;;;;;;;;;;5085301;28;20417;-81
2022/10/14 06:35:22;;;;;;;138.40;65.03;;;;;;;;;;5080261;28;20427;-80
2022/10/14 06:37:51;;;;;;;135.07;66.13;;;;;;;;;;5079429;28;20407;-82
2022/10/14 06:40:17;;;;;;;120.47;63.00;;;;;;;;;;5063017;28;20423;-82
2022/10/14 06:42:44;;;;;;;124.05;60.75;;;;;;;;;;5081031;28;20453;-82
2022/10/14 06:45:10;;;;;;;137.32;62.90;;;;;;;;;;5081832;28;20453;-83
2022/10/14 06:47:37;;;;;;;129.63;62.40;;;;;;;;;;5079993;28;20426;-81
2022/10/14 06:50:04;;;;;;;123.57;59.75;;;;;;;;;;5084561;28;20765;-81
2022/10/14 06:52:30;;;;;;;120.10;59.47;;;;;;;;;;5082196;28;20941;-81
2022/10/14 06:54:58;;;;;;;133.17;63.57;;;;;;;;;;5085132;28;20414;-81
2022/10/14 06:57:24;;;;;;;124.00;61.67;;;;;;;;;;5081956;28;20411;-81
2022/10/14 06:59:51;;;;;;;121.32;61.38;;;;;;;;;;5087086;28;20420;-81
2022/10/14 07:02:18;;;;;;;126.57;60.88;;;;;;;;;;5085108;28;20443;-81
2022/10/14 07:04:44;;;;;;;126.30;60.97;;;;;;;;;;5085191;28;20417;-80
2022/10/14 07:07:11;;;;;;;125.00;59.75;;;;;;;;;;5079565;28;20415;-81
2022/10/14 07:09:38;;;;;;;128.77;59.72;;;;;;;;;;5082477;28;20409;-81
2022/10/14 07:12:06;;;;;;;132.15;61.03;;;;;;;;;;5061997;28;20843;-81
2022/10/14 07:14:32;;;;;;;112.65;55.25;;;;;;;;;;5081121;28;20449;-82
2022/10/14 07:16:59;;;;;;;112.88;56.20;;;;;;;;;;5081699;28;20429;-82
2022/10/14 07:19:25;;;;;;;126.93;58.70;;;;;;;;;;5081680;28;20451;-82
2022/10/14 07:21:52;;;;;;;130.40;59.70;;;;;;;;;;5082045;28;20502;-82
2022/10/14 07:24:18;;;;;;;127.00;60.00;;;;;;;;;;5079778;28;20758;-82
2022/10/14 07:26:44;;;;;;;119.68;57.17;;;;;;;;;;5062885;28;20771;-81
2022/10/14 07:29:12;;;;;;;123.13;58.45;;;;;;;;;;5080817;28;20424;-81
2022/10/14 07:31:39;;;;;;;126.38;59.67;;;;;;;;;;5085129;28;20410;-81
2022/10/14 07:34:06;;;;;;;117.22;55.53;;;;;;;;;;5082243;28;20418;-83
2022/10/14 07:36:32;;;;;;;117.68;54.92;;;;;;;;;;5084167;28;20412;-82
2022/10/14 07:38:59;;;;;;;122.50;57.72;;;;;;;;;;5081124;28;20415;-81
2022/10/14 07:41:26;;;;;;;125.03;58.25;;;;;;;;;;5081086;28;20554;-83
2022/10/14 07:43:53;;;;;;;118.18;58.53;;;;;;;;;;5080325;28;20429;-83
2022/10/14 07:46:28;;;;;;;125.80;57.30;;;;;;;;;;5080692;28;20419;-83
2022/10/14 07:48:54;;;;;;;112.50;55.38;;;;;;;;;;5081337;28;20414;-82
2022/10/14 07:51:21;;;;;;;112.30;54.92;;;;;;;;;;5079418;28;20417;-83
2022/10/14 07:53:49;;;;;;;115.35;53.88;;;;;;;;;;5064309;28;20410;-82
2022/10/14 07:56:15;;;;;;;111.93;54.05;;;;;;;;;;5083726;28;20447;-83
2022/10/14 07:58:41;;;;;;;116.63;54.70;;;;;;;;;;5080009;28;20920;-82
2022/10/14 08:01:08;;;;;;;106.68;52.60;;;;;;;;;;5085032;28;20425;-83
2022/10/14 08:03:35;;;;;;;104.82;52.80;;;;;;;;;;5079990;28;20421;-83
2022/10/14 08:06:04;;;;;;;107.75;52.38;;;;;;;;;;5080477;28;20426;-82
2022/10/14 08:08:31;;;;;;;109.45;53.13;;;;;;;;;;5079700;28;20417;-83
2022/10/14 08:11:01;;;;;;;116.90;55.45;;;;;;;;;;5079800;28;20434;-83
2022/10/14 08:13:27;;;;;;;93.40;48.87;;;;;;;;;;5083783;28;20436;-83
2022/10/14 08:15:53;;;;;;;100.32;51.35;;;;;;;;;;5082302;28;20435;-82
2022/10/14 08:18:20;;;;;;;101.22;51.22;;;;;;;;;;5076796;28;20409;-83
2022/10/14 08:20:48;;;;;;;99.28;49.42;;;;;;;;;;5063109;28;20441;-83
2022/10/14 08:23:14;;;;;;;95.90;49.67;;;;;;;;;;5059067;28;20424;-82
2022/10/14 08:25:40;;;;;;;88.38;48.00;;;;;;;;;;5078341;28;20453;-82
2022/10/14 08:28:07;;;;;;;80.20;45.42;;;;;;;;;;5079449;28;20459;-83
2022/10/14 08:30:35;;;;;;;79.53;43.90;;;;;;;;;;5079329;28;20423;-82
2022/10/14 08:33:01;;;;;;;74.07;41.80;;;;;;;;;;5064832;28;20929;-83
2022/10/14 08:35:28;;;;;;;72.22;42.35;;;;;;;;;;5094044;28;20432;-83
2022/10/14 08:37:57;;;;;;;70.38;42.40;;;;;;;;;;5080050;28;20419;-83
2022/10/14 08:40:24;;;;;;;71.22;41.72;;;;;;;;;;5082325;28;20427;-82
2022/10/14 08:42:54;;;;;;;74.13;42.80;;;;;;;;;;5064706;28;20439;-82
2022/10/14 08:45:24;;;;;;;78.93;44.97;;;;;;;;;;5083703;28;20801;-81
2022/10/14 08:47:53;;;;;;;70.13;43.55;;;;;;;;;;5071727;28;20826;-81
2022/10/14 08:50:23;;;;;;;76.07;43.78;;;;;;;;;;5084622;28;20910;-83
2022/10/14 08:52:52;;;;;;;67.05;40.63;;;;;;;;;;5081659;28;20485;-82
2022/10/14 08:55:23;;;;;;;70.97;42.83;;;;;;;;;;5080178;28;20431;-82
2022/10/14 08:57:52;;;;;;;75.45;46.83;;;;;;;;;;5085761;28;20434;-81
2022/10/14 09:00:19;;;;;;;70.38;46.75;;;;;;;;;;5081427;28;20484;-83
2022/10/14 09:02:47;;;;;;;59.92;39.92;;;;;;;;;;5083508;28;20784;-84
2022/10/14 09:05:15;;;;;;;60.13;37.77;;;;;;;;;;5079991;28;20465;-81
2022/10/14 09:07:41;;;;;;;57.90;37.05;;;;;;;;;;5084141;28;20417;-82
2022/10/14 09:10:11;;;;;;;62.08;38.15;;;;;;;;;;5084476;28;20441;-81
2022/10/14 09:12:39;;;;;;;57.92;37.20;;;;;;;;;;5081247;28;20873;-80
2022/10/14 09:15:12;;;;;;;56.45;37.70;;;;;;;;;;5080294;28;20427;-81
2022/10/14 09:17:41;;;;;;;53.23;35.30;;;;;;;;;;5082114;28;20435;-81
2022/10/14 09:20:15;;;;;;;47.72;30.42;;;;;;;;;;5068753;28;20418;-81
2022/10/14 09:22:41;;;;;;;48.58;32.20;;;;;;;;;;5082181;28;20425;-81
2022/10/14 09:25:12;;;;;;;43.08;29.38;;;;;;;;;;5080436;28;20821;-81
2022/10/14 09:27:40;;;;;;;44.80;30.53;;;;;;;;;;5077969;28;20414;-80
2022/10/14 09:30:09;;;;;;;47.03;30.38;;;;;;;;;;5082035;28;20790;-81
2022/10/14 09:32:37;;;;;;;44.15;29.73;;;;;;;;;;5081844;28;20412;-80
2022/10/14 09:35:04;;;;;;;43.72;30.45;;;;;;;;;;5064170;28;20427;-81
2022/10/14 09:37:31;;;;;;;41.83;28.40;;;;;;;;;;5083678;28;20955;-80
2022/10/14 09:39:59;;;;;;;46.13;29.40;;;;;;;;;;5097277;28;20419;-83
2022/10/14 09:42:28;;;;;;;45.97;30.05;;;;;;;;;;5076598;28;20432;-81
2022/10/14 09:45:06;;;;;;;46.38;30.52;;;;;;;;;;5084099;28;20435;-81
2022/10/14 09:47:35;;;;;;;49.03;30.58;;;;;;;;;;5078432;28;20428;-81
2022/10/14 09:50:07;;;;;;;47.22;30.27;;;;;;;;;;5088906;28;20431;-81
2022/10/14 09:52:35;;;;;;;49.78;30.70;;;;;;;;;;5080566;28;20447;-81
2022/10/14 09:55:01;;;;;;;47.05;30.60;;;;;;;;;;5097564;28;20441;-81
2022/10/14 09:57:28;;;;;;;47.63;31.15;;;;;;;;;;5082834;28;20422;-81
2022/10/14 09:59:56;;;;;;;47.38;30.55;;;;;;;;;;5081870;28;20431;-81
2022/10/14 10:02:25;;;;;;;48.63;32.30;;;;;;;;;;5081363;28;20433;-81
2022/10/14 10:04:53;;;;;;;45.60;31.37;;;;;;;;;;5066759;28;20772;-81
2022/10/14 10:07:25;;;;;;;42.50;28.27;;;;;;;;;;5081552;28;20829;-81
2022/10/14 10:09:54;;;;;;;36.25;23.10;;;;;;;;;;5081222;28;20438;-81
2022/10/14 10:12:23;;;;;;;34.00;22.65;;;;;;;;;;5082624;28;20398;-80
2022/10/14 10:14:56;;;;;;;32.15;23.13;;;;;;;;;;5080558;28;20492;-80
2022/10/14 10:17:26;;;;;;;33.53;22.60;;;;;;;;;;5084348;28;20426;-81
2022/10/14 10:20:05;;;;;;;33.15;22.27;;;;;;;;;;5085159;28;20446;-81
2022/10/14 10:22:35;;;;;;;32.90;21.73;;;;;;;;;;5085617;28;20797;-81
2022/10/14 10:25:18;;;;;;;35.88;22.35;;;;;;;;;;5080186;28;20524;-81
2022/10/14 10:27:46;;;;;;;29.90;20.70;;;;;;;;;;5083592;28;20829;-82
2022/10/14 10:30:22;;;;;;;32.35;21.75;;;;;;;;;;5095641;28;20426;-81
2022/10/14 10:32:55;;;;;;;30.77;22.00;;;;;;;;;;5084946;28;20522;-81
2022/10/14 10:35:28;;;;;;;29.92;19.95;;;;;;;;;;5078547;28;20431;-81
2022/10/14 10:38:04;;;;;;;29.77;20.23;;;;;;;;;;5080610;28;20976;-80
2022/10/14 10:40:32;;;;;;;28.77;20.58;;;;;;;;;;5080138;28;20467;-81
2022/10/14 10:43:17;;;;;;;30.92;20.35;;;;;;;;;;5083666;28;20474;-81
2022/10/14 10:45:51;;;;;;;25.48;19.20;;;;;;;;;;5071038;28;20501;-80
2022/10/14 10:48:23;;;;;;;28.75;21.45;;;;;;;;;;5079646;28;20424;-81
2022/10/14 10:50:56;;;;;;;29.87;20.67;;;;;;;;;;5081904;28;20417;-81
2022/10/14 10:53:45;;;;;;;30.05;20.13;;;;;;;;;;5078560;28;20434;-81
2022/10/14 10:56:17;;;;;;;26.10;19.45;;;;;;;;;;5078774;28;20757;-81
2022/10/14 10:58:53;;;;;;;28.33;20.03;;;;;;;;;;5078310;28;20423;-81
2022/10/14 11:01:30;;;;;;;27.00;19.83;;;;;;;;;;5062752;28;20828;-80
2022/10/14 11:04:04;;;;;;;29.23;20.43;;;;;;;;;;5080727;28;20481;-81
2022/10/14 11:12:12;;;;;;;30.98;20.52;;;;;;;;;;5081637;28;20421;-82
2022/10/14 11:14:56;;;;;;;26.10;20.08;;;;;;;;;;5081908;28;21683;-82
2022/10/14 11:17:26;;;;;;;29.80;20.03;;;;;;;;;;5072178;28;20430;-80
2022/10/14 11:20:00;;;;;;;26.00;18.70;;;;;;;;;;5081021;28;20433;-81
2022/10/14 11:22:34;;;;;;;25.50;19.00;;;;;;;;;;5078166;28;20926;-82
2022/10/14 11:25:04;;;;;;;24.40;18.20;;;;;;;;;;5080988;28;20416;-82
2022/10/14 11:27:33;;;;;;;26.02;18.90;;;;;;;;;;5080412;28;20932;-82
2022/10/14 11:30:05;;;;;;;26.33;18.95;;;;;;;;;;5085094;28;20791;-82
2022/10/14 11:32:37;;;;;;;27.52;19.05;;;;;;;;;;5079061;28;20427;-82
2022/10/14 11:35:13;;;;;;;24.77;18.05;;;;;;;;;;5095131;28;20454;-82
2022/10/14 11:37:44;;;;;;;25.50;18.43;;;;;;;;;;5080183;28;20789;-83
2022/10/14 11:40:20;;;;;;;27.23;19.13;;;;;;;;;;5082581;28;20440;-81
2022/10/14 11:42:53;;;;;;;24.63;16.88;;;;;;;;;;5080197;28;20406;-81
2022/10/14 11:45:34;;;;;;;22.85;17.00;;;;;;;;;;5080603;28;20429;-80
2022/10/14 11:48:05;;;;;;;23.00;18.25;;;;;;;;;;5079406;28;20423;-80
2022/10/14 11:50:36;;;;;;;24.88;17.23;;;;;;;;;;5079108;28;20434;-81
2022/10/14 11:53:05;;;;;;;24.45;17.63;;;;;;;;;;5080943;28;20424;-80
2022/10/14 11:55:34;;;;;;;22.67;16.63;;;;;;;;;;5064385;28;20430;-80
2022/10/14 11:58:03;;;;;;;22.50;16.70;;;;;;;;;;5078604;28;20414;-81
2022/10/14 12:00:48;;;;;;;21.23;15.57;;;;;;;;;;5081652;28;20433;-84
2022/10/14 12:03:20;;;;;;;24.23;17.70;;;;;;;;;;5075094;28;20423;-82
2022/10/14 12:05:58;;;;;;;25.15;17.60;;;;;;;;;;5082070;28;20421;-80
2022/10/14 12:08:29;;;;;;;29.02;19.98;;;;;;;;;;5078594;28;20451;-80
2022/10/14 12:11:00;;;;;;;27.92;20.45;;;;;;;;;;5077547;28;20488;-83
2022/10/14 12:13:32;;;;;;;28.58;20.67;;;;;;;;;;5078611;28;20783;-82
2022/10/14 12:15:59;;;;;;;30.17;21.83;;;;;;;;;;5078460;28;20431;-81
2022/10/14 12:18:26;;;;;;;28.70;21.40;;;;;;;;;;5081485;28;20415;-80
2022/10/14 12:20:57;;;;;;;32.20;25.25;;;;;;;;;;5078341;28;20424;-80
2022/10/14 12:23:28;;;;;;;34.53;26.58;;;;;;;;;;5091524;28;20426;-82
2022/10/14 12:25:56;;;;;;;33.58;26.88;;;;;;;;;;5078963;28;20505;-80
2022/10/14 12:28:23;;;;;;;42.40;32.90;;;;;;;;;;5078368;28;20423;-83
2022/10/14 12:30:50;;;;;;;41.38;32.13;;;;;;;;;;5080608;28;20433;-80
2022/10/14 12:33:17;;;;;;;44.15;34.78;;;;;;;;;;5079582;28;20414;-82
2022/10/14 12:35:49;;;;;;;43.70;35.17;;;;;;;;;;5082924;28;20974;-82
2022/10/14 12:38:16;;;;;;;46.63;35.63;;;;;;;;;;5060625;28;20424;-81
2022/10/14 12:40:43;;;;;;;47.05;38.00;;;;;;;;;;5078388;28;20847;-81
2022/10/14 12:43:22;;;;;;;46.10;36.22;;;;;;;;;;5075370;28;20489;-80
2022/10/14 12:46:10;;;;;;;48.60;38.08;;;;;;;;;;5062259;28;20415;-80
2022/10/14 12:48:37;;;;;;;52.37;38.67;;;;;;;;;;5074092;28;20409;-82
2022/10/14 12:51:12;;;;;;;53.75;40.25;;;;;;;;;;5098514;28;20426;-80
2022/10/14 12:53:40;;;;;;;47.83;37.20;;;;;;;;;;5078119;28;20414;-80
2022/10/14 12:56:07;;;;;;;48.90;37.27;;;;;;;;;;5074532;28;20427;-81
2022/10/14 12:58:35;;;;;;;46.10;36.17;;;;;;;;;;5079912;28;20421;-80
2022/10/14 13:01:04;;;;;;;42.10;34.15;;;;;;;;;;5081210;28;20414;-80
2022/10/14 13:03:32;;;;;;;42.75;33.55;;;;;;;;;;5078844;28;20410;-80
2022/10/14 13:06:13;;;;;;;39.75;32.50;;;;;;;;;;5081680;28;20403;-80
2022/10/14 13:08:41;;;;;;;39.58;31.55;;;;;;;;;;5077585;28;20851;-82
2022/10/14 13:11:12;;;;;;;35.28;29.88;;;;;;;;;;5079451;28;20440;-82
2022/10/14 13:13:57;;;;;;;38.75;29.98;;;;;;;;;;5065191;28;20432;-81
2022/10/14 13:16:51;;;;;;;35.83;28.88;;;;;;;;;;5079340;28;20433;-80
2022/10/14 13:19:32;;;;;;;36.70;28.77;;;;;;;;;;5037858;28;20929;-80
2022/10/14 13:21:59;;;;;;;33.40;27.42;;;;;;;;;;5062500;28;20409;-80
2022/10/14 13:24:28;;;;;;;31.77;26.40;;;;;;;;;;5061858;28;20406;-80
2022/10/14 13:27:08;;;;;;;31.67;25.33;;;;;;;;;;5080864;27;20436;-80
2022/10/14 13:29:44;;;;;;;31.27;25.42;;;;;;;;;;5080014;28;20434;-81
2022/10/14 13:32:15;;;;;;;33.97;26.70;;;;;;;;;;5078446;28;20415;-80
2022/10/14 13:34:47;;;;;;;33.05;26.35;;;;;;;;;;5051912;28;20471;-80
2022/10/14 13:37:24;;;;;;;31.60;27.00;;;;;;;;;;5083526;27;20413;-80
2022/10/14 13:39:52;;;;;;;34.30;27.17;;;;;;;;;;5081952;28;20438;-80
2022/10/14 13:42:23;;;;;;;34.83;28.40;;;;;;;;;;5084085;28;20408;-80
2022/10/14 13:44:50;;;;;;;35.70;29.65;;;;;;;;;;5087087;28;20441;-80
2022/10/14 13:47:19;;;;;;;35.42;29.63;;;;;;;;;;5083701;27;20938;-80
2022/10/14 13:49:45;;;;;;;35.65;28.80;;;;;;;;;;5082814;28;20439;-80
2022/10/14 13:52:16;;;;;;;34.13;27.70;;;;;;;;;;5060495;28;20413;-80
2022/10/14 13:54:43;;;;;;;33.42;27.67;;;;;;;;;;5077266;28;20426;-80
2022/10/14 13:57:11;;;;;;;33.67;27.53;;;;;;;;;;5078480;27;20416;-81
2022/10/14 13:59:39;;;;;;;35.25;27.80;;;;;;;;;;5077222;28;20427;-80
2022/10/14 14:02:11;;;;;;;33.97;27.95;;;;;;;;;;5082327;27;20434;-82
2022/10/14 14:04:38;;;;;;;33.67;26.65;;;;;;;;;;5077562;28;20423;-82
2022/10/14 14:07:05;;;;;;;33.25;26.38;;;;;;;;;;5077822;28;20479;-82
2022/10/14 14:09:33;;;;;;;33.83;25.95;;;;;;;;;;5082743;28;20434;-82
2022/10/14 14:12:03;;;;;;;31.13;24.00;;;;;;;;;;5057488;28;20435;-82
2022/10/14 14:14:33;;;;;;;30.65;24.25;;;;;;;;;;5080327;28;20434;-82
2022/10/14 14:17:01;;;;;;;29.50;22.60;;;;;;;;;;5082890;28;20442;-80
2022/10/14 14:19:28;;;;;;;29.58;22.55;;;;;;;;;;5080824;28;20431;-80
2022/10/14 14:22:05;;;;;;;29.47;22.00;;;;;;;;;;5059561;27;20431;-80
2022/10/14 14:24:33;;;;;;;23.55;20.17;;;;;;;;;;5078911;28;20498;-82
2022/10/14 14:26:59;;;;;;;27.27;21.05;;;;;;;;;;5078630;28;20510;-82